createdAt,value
2019-01-12T00:02:07.859Z,5.20
2019-01-12T00:04:35.662Z,5.20
2019-01-12T00:07:03.562Z,5.20
2019-01-12T00:09:31.454Z,5.20
2019-01-12T00:11:59.320Z,5.20
2019-01-12T00:14:27.112Z,5.10
2019-01-12T00:16:54.904Z,5.10
2019-01-12T00:19:22.723Z,5.10
2019-01-12T00:21:50.849Z,5.10
2019-01-12T00:24:18.681Z,5.10
2019-01-12T00:26:46.782Z,5.10
2019-01-12T00:29:14.615Z,5.10
2019-01-12T00:31:42.460Z,5.10
2019-01-12T00:34:10.272Z,5.10
2019-01-12T00:36:38.093Z,5.10
2019-01-12T00:39:07.124Z,5.10
2019-01-12T00:41:34.890Z,5.10
2019-01-12T00:44:02.686Z,5.10
2019-01-12T00:46:30.486Z,5.00
2019-01-12T00:48:58.262Z,5.00
2019-01-12T00:51:26.101Z,5.00
2019-01-12T00:53:53.988Z,5.00
2019-01-12T00:56:21.758Z,5.00
2019-01-12T00:58:49.557Z,5.00
2019-01-12T01:01:17.326Z,5.00
2019-01-12T01:03:45.155Z,5.00
2019-01-12T01:06:13.001Z,5.00
2019-01-12T01:08:40.809Z,5.00
2019-01-12T01:11:08.575Z,5.00
2019-01-12T01:13:38.883Z,4.90
2019-01-12T01:16:06.742Z,4.90
2019-01-12T01:18:34.550Z,4.90
2019-01-12T01:21:02.371Z,4.90
2019-01-12T01:23:30.242Z,4.80
2019-01-12T01:25:58.004Z,4.80
2019-01-12T01:28:25.803Z,4.80
2019-01-12T01:30:53.648Z,4.80
2019-01-12T01:33:27.927Z,4.80
2019-01-12T01:35:52.307Z,4.80
2019-01-12T01:38:20.395Z,4.80
2019-01-12T01:40:48.287Z,4.80
2019-01-12T01:43:16.087Z,4.80
2019-01-12T01:45:43.866Z,4.70
2019-01-12T01:48:11.690Z,4.70
2019-01-12T01:50:39.566Z,4.70
2019-01-12T01:53:07.422Z,4.70
2019-01-12T01:55:35.208Z,4.70
2019-01-12T01:58:03.133Z,4.70
2019-01-12T02:00:31.212Z,4.60
2019-01-12T02:02:58.984Z,4.60
2019-01-12T02:05:27.028Z,4.70
2019-01-12T02:07:54.827Z,4.60
2019-01-12T02:10:22.781Z,4.60
2019-01-12T02:12:50.964Z,4.60
2019-01-12T02:15:20.062Z,4.60
2019-01-12T02:17:47.935Z,4.60
2019-01-12T02:20:15.746Z,4.60
2019-01-12T02:22:43.559Z,4.50
2019-01-12T02:25:11.554Z,4.50
2019-01-12T02:27:39.583Z,4.50
2019-01-12T02:30:10.213Z,4.50
2019-01-12T02:32:38.104Z,4.60
2019-01-12T02:35:06.163Z,4.50
2019-01-12T02:37:34.049Z,4.60
2019-01-12T02:40:01.854Z,4.50
2019-01-12T02:42:29.615Z,4.50
2019-01-12T02:44:57.432Z,4.50
2019-01-12T02:47:25.298Z,4.50
2019-01-12T02:49:53.187Z,4.50
2019-01-12T02:52:21.062Z,4.50
2019-01-12T02:54:48.898Z,4.50
2019-01-12T02:57:16.666Z,4.50
2019-01-12T02:59:44.543Z,4.40
2019-01-12T03:02:12.672Z,4.40
2019-01-12T03:04:40.575Z,4.40
2019-01-12T03:07:08.381Z,4.40
2019-01-12T03:09:36.220Z,4.40
2019-01-12T03:12:04.340Z,4.40
2019-01-12T03:14:32.407Z,4.40
2019-01-12T03:17:00.213Z,4.50
2019-01-12T03:19:28.008Z,4.50
2019-01-12T03:21:55.806Z,4.50
2019-01-12T03:24:23.574Z,4.50
2019-01-12T03:26:51.368Z,4.50
2019-01-12T03:29:19.251Z,4.50
2019-01-12T03:31:47.063Z,4.50
2019-01-12T03:34:15.099Z,4.50
2019-01-12T03:36:43.047Z,4.50
2019-01-12T03:39:10.827Z,4.50
2019-01-12T03:41:38.714Z,4.50
2019-01-12T03:44:06.551Z,4.50
2019-01-12T03:46:34.359Z,4.50
2019-01-12T03:49:02.178Z,4.50
2019-01-12T03:51:29.976Z,4.50
2019-01-12T03:53:57.768Z,4.50
2019-01-12T03:56:25.677Z,4.50
2019-01-12T03:58:53.625Z,4.50
2019-01-12T04:01:21.409Z,4.50
2019-01-12T04:03:49.202Z,4.50
2019-01-12T04:06:17.010Z,4.50
2019-01-12T04:08:44.784Z,4.50
2019-01-12T04:11:12.583Z,4.50
2019-01-12T04:13:40.351Z,4.50
2019-01-12T04:16:08.226Z,4.50
2019-01-12T04:18:35.992Z,4.50
2019-01-12T04:21:03.786Z,4.60
2019-01-12T04:23:31.607Z,4.50
2019-01-12T04:25:59.498Z,4.60
2019-01-12T04:28:27.362Z,4.50
2019-01-12T04:30:55.231Z,4.60
2019-01-12T04:33:23.011Z,4.60
2019-01-12T04:35:50.841Z,4.60
2019-01-12T04:38:18.609Z,4.60
2019-01-12T04:40:46.411Z,4.60
2019-01-12T04:43:14.191Z,4.60
2019-01-12T04:45:41.994Z,4.60
2019-01-12T04:48:09.875Z,4.60
2019-01-12T04:50:37.769Z,4.60
2019-01-12T04:53:05.539Z,4.70
2019-01-12T04:55:41.053Z,4.60
2019-01-12T04:58:02.846Z,4.60
2019-01-12T05:00:30.625Z,4.60
2019-01-12T05:02:58.408Z,4.70
2019-01-12T05:05:26.187Z,4.70
2019-01-12T05:07:54.052Z,4.70
2019-01-12T05:10:21.831Z,4.70
2019-01-12T05:12:49.623Z,4.70
2019-01-12T05:15:17.443Z,4.70
2019-01-12T05:17:45.268Z,4.70
2019-01-12T05:20:20.050Z,4.70
2019-01-12T05:22:47.925Z,4.70
2019-01-12T05:25:15.840Z,4.70
2019-01-12T05:27:43.731Z,4.70
2019-01-12T05:30:12.857Z,4.80
2019-01-12T05:32:40.802Z,4.70
2019-01-12T05:35:08.642Z,4.80
2019-01-12T05:37:36.432Z,4.70
2019-01-12T05:40:05.210Z,4.80
2019-01-12T05:42:33.010Z,4.80
2019-01-12T05:45:00.788Z,4.80
2019-01-12T05:47:28.583Z,4.80
2019-01-12T05:49:56.354Z,4.80
2019-01-12T05:52:24.168Z,4.80
2019-01-12T05:54:51.936Z,4.80
2019-01-12T05:57:19.799Z,4.80
2019-01-12T05:59:47.833Z,4.90
2019-01-12T06:02:15.640Z,4.90
2019-01-12T06:04:43.457Z,4.90
2019-01-12T06:07:11.374Z,4.90
2019-01-12T06:09:39.446Z,5.00
2019-01-12T06:12:07.307Z,4.90
2019-01-12T06:14:35.066Z,4.90
2019-01-12T06:17:02.859Z,4.90
2019-01-12T06:19:30.643Z,4.90
2019-01-12T06:21:58.429Z,5.00
2019-01-12T06:24:26.197Z,5.00
2019-01-12T06:26:54.003Z,4.90
2019-01-12T06:29:21.859Z,5.00
2019-01-12T06:31:49.734Z,5.00
2019-01-12T06:34:17.591Z,5.00
2019-01-12T06:36:45.480Z,5.00
2019-01-12T06:39:13.332Z,5.00
2019-01-12T06:41:41.207Z,5.00
2019-01-12T06:44:09.035Z,5.10
2019-01-12T06:46:36.803Z,5.00
2019-01-12T06:49:04.591Z,5.10
2019-01-12T06:51:32.364Z,5.10
2019-01-12T06:54:00.258Z,5.10
2019-01-12T06:56:28.034Z,5.10
2019-01-12T06:58:56.159Z,5.10
2019-01-12T07:01:24.026Z,5.10
2019-01-12T07:03:51.910Z,5.10
2019-01-12T07:06:19.767Z,5.10
2019-01-12T07:08:47.556Z,5.10
2019-01-12T07:11:15.583Z,5.20
2019-01-12T07:13:43.399Z,5.10
2019-01-12T07:16:11.175Z,5.10
2019-01-12T07:18:38.979Z,5.20
2019-01-12T07:21:06.741Z,5.20
2019-01-12T07:23:34.814Z,5.20
2019-01-12T07:26:02.599Z,5.20
2019-01-12T07:28:30.491Z,5.20
2019-01-12T07:30:58.331Z,5.20
2019-01-12T07:33:26.212Z,5.20
2019-01-12T07:35:54.067Z,5.30
2019-01-12T07:38:22.122Z,5.30
2019-01-12T07:40:49.904Z,5.30
2019-01-12T07:43:17.692Z,5.30
2019-01-12T07:45:45.531Z,5.30
2019-01-12T07:48:13.336Z,5.30
2019-01-12T07:50:41.143Z,5.30
2019-01-12T07:53:08.972Z,5.30
2019-01-12T07:55:36.794Z,5.20
2019-01-12T07:58:04.602Z,5.10
2019-01-12T08:00:32.507Z,5.10
2019-01-12T08:03:00.314Z,5.00
2019-01-12T08:05:28.214Z,5.00
2019-01-12T08:07:56.022Z,5.00
2019-01-12T08:10:24.379Z,5.00
2019-01-12T08:12:52.398Z,5.00
2019-01-12T08:15:20.340Z,5.10
2019-01-12T08:17:48.143Z,5.00
2019-01-12T08:20:16.002Z,5.10
2019-01-12T08:22:43.911Z,5.10
2019-01-12T08:25:11.731Z,5.20
2019-01-12T08:27:39.637Z,5.20
2019-01-12T08:30:09.937Z,5.20
2019-01-12T08:32:37.799Z,5.20
2019-01-12T08:35:06.322Z,5.30
2019-01-12T08:37:34.231Z,5.30
2019-01-12T08:40:02.098Z,5.40
2019-01-12T08:42:30.005Z,5.30
2019-01-12T08:44:57.936Z,5.30
2019-01-12T08:47:25.827Z,5.30
2019-01-12T08:49:53.683Z,5.30
2019-01-12T08:52:22.576Z,5.30
2019-01-12T08:54:50.744Z,5.30
2019-01-12T08:57:18.672Z,5.40
2019-01-12T08:59:46.577Z,5.40
2019-01-12T09:02:14.498Z,5.40
2019-01-12T09:04:43.520Z,5.40
2019-01-12T09:07:11.687Z,5.40
2019-01-12T09:09:39.509Z,5.50
2019-01-12T09:12:08.396Z,5.40
2019-01-12T09:14:36.262Z,5.50
2019-01-12T09:17:04.184Z,5.40
2019-01-12T09:19:32.054Z,5.40
2019-01-12T09:21:59.943Z,5.40
2019-01-12T09:24:27.834Z,5.40
2019-01-12T09:26:55.747Z,5.50
2019-01-12T09:29:23.611Z,5.50
2019-01-12T09:31:51.378Z,5.50
2019-01-12T09:34:19.372Z,5.60
2019-01-12T09:36:47.159Z,5.50
2019-01-12T09:39:15.079Z,5.50
2019-01-12T09:41:42.962Z,5.50
2019-01-12T09:44:10.875Z,5.50
2019-01-12T09:46:38.716Z,5.50
2019-01-12T09:49:06.611Z,5.50
2019-01-12T09:51:34.545Z,5.60
2019-01-12T09:54:02.335Z,5.60
2019-01-12T09:56:30.182Z,5.70
2019-01-12T09:58:57.997Z,5.70
2019-01-12T10:01:26.095Z,5.80
2019-01-12T10:03:53.934Z,5.70
2019-01-12T10:06:21.765Z,5.80
2019-01-12T10:08:49.912Z,5.80
2019-01-12T10:11:17.692Z,5.90
2019-01-12T10:13:45.610Z,5.90
2019-01-12T10:16:13.515Z,6.00
2019-01-12T10:18:41.459Z,6.00
2019-01-12T10:21:09.303Z,6.00
2019-01-12T10:23:37.127Z,6.10
2019-01-12T10:26:05.084Z,6.20
2019-01-12T10:28:32.968Z,6.20
2019-01-12T10:31:00.865Z,6.20
2019-01-12T10:33:28.781Z,6.20
2019-01-12T10:35:56.664Z,6.20
2019-01-12T10:38:24.619Z,6.20
2019-01-12T10:40:53.207Z,6.30
2019-01-12T10:43:21.025Z,6.30
2019-01-12T10:45:48.946Z,6.30
2019-01-12T10:48:16.749Z,6.30
2019-01-12T10:50:44.603Z,6.30
2019-01-12T10:53:12.422Z,6.40
2019-01-12T10:55:40.242Z,6.50
2019-01-12T10:58:09.049Z,6.50
2019-01-12T11:00:37.674Z,6.40
2019-01-12T11:03:05.623Z,6.30
2019-01-12T11:05:33.436Z,6.30
2019-01-12T11:08:01.423Z,6.30
2019-01-12T11:10:30.306Z,6.30
2019-01-12T11:12:58.355Z,6.30
2019-01-12T11:15:26.470Z,6.50
2019-01-12T11:17:54.403Z,6.60
2019-01-12T11:20:22.207Z,6.60
2019-01-12T11:22:50.069Z,6.50
2019-01-12T11:25:17.951Z,6.40
2019-01-12T11:27:45.792Z,6.40
2019-01-12T11:30:14.750Z,6.50
2019-01-12T11:32:42.722Z,6.60
2019-01-12T11:35:10.727Z,6.60
2019-01-12T11:37:38.502Z,6.60
2019-01-12T11:40:08.377Z,6.60
2019-01-12T11:42:36.233Z,6.50
2019-01-12T11:45:04.831Z,6.50
2019-01-12T11:47:32.595Z,6.40
2019-01-12T11:50:00.649Z,6.40
2019-01-12T11:52:28.718Z,6.40
2019-01-12T11:54:56.799Z,6.40
2019-01-12T11:57:24.675Z,6.40
2019-01-12T11:59:54.163Z,6.40
2019-01-12T12:02:23.076Z,6.40
2019-01-12T12:04:51.322Z,6.40
2019-01-12T12:07:19.135Z,6.40
2019-01-12T12:09:47.006Z,6.40
2019-01-12T12:12:14.923Z,6.50
2019-01-12T12:14:42.741Z,6.50
2019-01-12T12:17:10.656Z,6.60
2019-01-12T12:19:38.556Z,6.60
2019-01-12T12:22:06.559Z,6.70
2019-01-12T12:24:34.403Z,6.70
2019-01-12T12:27:02.296Z,6.60
2019-01-12T12:29:30.143Z,6.60
2019-01-12T12:31:58.444Z,6.60
2019-01-12T12:34:26.569Z,6.60
2019-01-12T12:36:54.454Z,6.60
2019-01-12T12:39:22.346Z,6.60
2019-01-12T12:41:50.245Z,6.60
2019-01-12T12:44:18.066Z,6.60
2019-01-12T12:46:45.975Z,6.60
2019-01-12T12:49:13.879Z,6.50
2019-01-12T12:51:41.783Z,6.50
2019-01-12T12:54:09.639Z,6.60
2019-01-12T12:56:37.536Z,6.60
2019-01-12T12:59:05.327Z,6.70
2019-01-12T13:01:33.247Z,6.70
2019-01-12T13:04:01.110Z,6.70
2019-01-12T13:06:29.003Z,6.80
2019-01-12T13:08:57.102Z,6.80
2019-01-12T13:11:24.955Z,6.80
2019-01-12T13:13:52.778Z,6.70
2019-01-12T13:16:20.683Z,6.60
2019-01-12T13:18:48.509Z,6.60
2019-01-12T13:21:17.355Z,6.50
2019-01-12T13:23:45.155Z,6.50
2019-01-12T13:26:13.001Z,6.50
2019-01-12T13:28:40.796Z,6.50
2019-01-12T13:31:08.720Z,6.50
2019-01-12T13:33:36.544Z,6.60
2019-01-12T13:36:05.807Z,6.60
2019-01-12T13:38:33.824Z,6.60
2019-01-12T13:41:01.742Z,6.60
2019-01-12T13:43:29.555Z,6.60
2019-01-12T13:45:57.453Z,6.60
2019-01-12T13:48:25.284Z,6.50
2019-01-12T13:50:53.067Z,6.50
2019-01-12T13:53:20.898Z,6.50
2019-01-12T13:55:48.715Z,6.40
2019-01-12T13:58:16.679Z,6.30
2019-01-12T14:00:44.509Z,6.20
2019-01-12T14:03:12.335Z,6.10
2019-01-12T14:05:40.123Z,6.00
2019-01-12T14:08:08.123Z,6.00
2019-01-12T14:10:35.899Z,6.00
2019-01-12T14:13:03.940Z,5.90
2019-01-12T14:15:32.346Z,5.90
2019-01-12T14:18:00.166Z,5.90
2019-01-12T14:20:32.230Z,5.90
2019-01-12T14:23:00.131Z,5.90
2019-01-12T14:25:28.029Z,5.80
2019-01-12T14:27:55.884Z,5.80
2019-01-12T14:30:23.659Z,5.70
2019-01-12T14:32:53.451Z,5.70
2019-01-12T14:35:21.225Z,5.60
2019-01-12T14:37:49.272Z,5.60
2019-01-12T14:40:17.608Z,5.50
2019-01-12T14:42:45.430Z,5.50
2019-01-12T14:45:14.999Z,5.50
2019-01-12T14:47:42.798Z,5.50
2019-01-12T14:50:10.875Z,5.50
2019-01-12T14:52:39.260Z,5.50
2019-01-12T14:55:07.802Z,5.50
2019-01-12T14:57:35.818Z,5.40
2019-01-12T15:00:06.011Z,5.40
2019-01-12T15:02:33.903Z,5.40
2019-01-12T15:05:01.748Z,5.30
2019-01-12T15:07:30.264Z,5.30
2019-01-12T15:09:58.376Z,5.30
2019-01-12T15:12:26.198Z,5.30
2019-01-12T15:14:53.975Z,5.40
2019-01-12T15:17:21.795Z,5.30
2019-01-12T15:19:49.580Z,5.30
2019-01-12T15:22:17.450Z,5.30
2019-01-12T15:24:45.225Z,5.30
2019-01-12T15:27:13.051Z,5.30
2019-01-12T15:29:40.827Z,5.30
2019-01-12T15:32:08.695Z,5.30
2019-01-12T15:34:36.546Z,5.30
2019-01-12T15:37:04.429Z,5.30
2019-01-12T15:39:32.587Z,5.30
2019-01-12T15:42:00.392Z,5.20
2019-01-12T15:44:28.519Z,5.20
2019-01-12T15:46:56.281Z,5.20
2019-01-12T15:49:24.118Z,5.20
2019-01-12T15:51:51.903Z,5.20
2019-01-12T15:54:20.243Z,5.20
2019-01-12T15:56:48.134Z,5.20
2019-01-12T15:59:16.651Z,5.20
2019-01-12T16:01:44.469Z,5.20
2019-01-12T16:04:12.441Z,5.20
2019-01-12T16:06:40.403Z,5.20
2019-01-12T16:09:08.423Z,5.20
2019-01-12T16:11:36.299Z,5.20
2019-01-12T16:14:04.388Z,5.20
2019-01-12T16:16:32.252Z,5.20
2019-01-12T16:19:00.066Z,5.20
2019-01-12T16:21:27.835Z,5.20
2019-01-12T16:23:55.661Z,5.30
2019-01-12T16:26:23.435Z,5.40
2019-01-12T16:28:51.263Z,5.50
2019-01-12T16:31:19.165Z,5.60
2019-01-12T16:33:47.109Z,5.60
2019-01-12T16:36:14.932Z,5.60
2019-01-12T16:38:42.856Z,5.60
2019-01-12T16:41:10.659Z,5.50
2019-01-12T16:43:38.503Z,5.50
2019-01-12T16:46:06.334Z,5.40
2019-01-12T16:48:34.340Z,5.40
2019-01-12T16:51:02.244Z,5.40
2019-01-12T16:53:30.151Z,5.40
2019-01-12T16:55:57.945Z,5.40
2019-01-12T16:58:30.362Z,5.30
2019-01-12T17:00:55.424Z,5.40
2019-01-12T17:03:23.650Z,5.30
2019-01-12T17:05:51.487Z,5.30
2019-01-12T17:08:19.407Z,5.30
2019-01-12T17:10:47.207Z,5.30
2019-01-12T17:13:15.103Z,5.30
2019-01-12T17:15:42.934Z,5.40
2019-01-12T17:18:10.930Z,5.40
2019-01-12T17:20:38.804Z,5.30
2019-01-12T17:23:06.659Z,5.30
2019-01-12T17:25:35.097Z,5.30
2019-01-12T17:28:02.937Z,5.30
2019-01-12T17:30:31.770Z,5.30
2019-01-12T17:32:59.610Z,5.30
2019-01-12T17:35:27.475Z,5.30
2019-01-12T17:37:55.324Z,5.30
2019-01-12T17:40:23.458Z,5.30
2019-01-12T17:42:51.356Z,5.30
2019-01-12T17:45:20.197Z,5.40
2019-01-12T17:47:48.049Z,5.40
2019-01-12T17:50:17.071Z,5.40
2019-01-12T17:52:45.008Z,5.40
2019-01-12T17:55:14.033Z,5.40
2019-01-12T17:57:41.912Z,5.40
2019-01-12T18:00:12.779Z,5.40
2019-01-12T18:02:40.680Z,5.40
2019-01-12T18:05:08.903Z,5.40
2019-01-12T18:07:36.822Z,5.40
2019-01-12T18:10:05.662Z,5.40
2019-01-12T18:12:33.450Z,5.40
2019-01-12T18:15:01.281Z,5.50
2019-01-12T18:17:29.083Z,5.50
2019-01-12T18:19:56.977Z,5.50
2019-01-12T18:22:24.773Z,5.50
2019-01-12T18:24:52.716Z,5.60
2019-01-12T18:27:20.593Z,5.60
2019-01-12T18:29:48.438Z,5.60
2019-01-12T18:32:16.282Z,5.60
2019-01-12T18:34:44.291Z,5.60
2019-01-12T18:37:12.111Z,5.60
2019-01-12T18:39:39.999Z,5.70
2019-01-12T18:42:07.806Z,5.70
2019-01-12T18:44:35.636Z,5.70
2019-01-12T18:47:03.475Z,5.70
2019-01-12T18:49:31.394Z,5.70
2019-01-12T18:51:59.163Z,5.80
2019-01-12T18:54:27.098Z,5.70
2019-01-12T18:56:54.883Z,5.80
2019-01-12T18:59:22.702Z,5.80
2019-01-12T19:01:50.727Z,5.80
2019-01-12T19:04:18.494Z,5.80
2019-01-12T19:06:46.331Z,5.90
2019-01-12T19:09:14.103Z,5.90
2019-01-12T19:11:41.952Z,5.80
2019-01-12T19:14:09.751Z,5.90
2019-01-12T19:16:37.651Z,5.90
2019-01-12T19:19:05.439Z,5.90
2019-01-12T19:21:33.270Z,5.90
2019-01-12T19:24:01.131Z,5.90
2019-01-12T19:26:28.954Z,5.90
2019-01-12T19:28:57.043Z,6.00
2019-01-12T19:31:25.015Z,6.00
2019-01-12T19:33:52.819Z,6.00
2019-01-12T19:36:20.648Z,6.00
2019-01-12T19:38:48.459Z,6.00
2019-01-12T19:41:16.279Z,6.00
2019-01-12T19:43:44.088Z,6.00
2019-01-12T19:46:12.086Z,5.90
2019-01-12T19:48:40.131Z,5.90
2019-01-12T19:51:07.970Z,6.00
2019-01-12T19:53:35.763Z,6.00
2019-01-12T19:56:03.827Z,6.00
2019-01-12T19:58:31.610Z,6.10
2019-01-12T20:00:59.492Z,6.10
2019-01-12T20:03:27.575Z,6.10
2019-01-12T20:05:55.484Z,6.10
2019-01-12T20:08:23.285Z,6.10
2019-01-12T20:10:51.113Z,6.20
2019-01-12T20:13:18.986Z,6.20
2019-01-12T20:15:46.860Z,6.20
2019-01-12T20:18:14.724Z,6.20
2019-01-12T20:20:42.584Z,6.20
2019-01-12T20:23:10.415Z,6.10
2019-01-12T20:25:38.340Z,6.20
2019-01-12T20:28:07.802Z,6.20
2019-01-12T20:30:53.919Z,6.20
2019-01-12T20:33:37.540Z,6.20
2019-01-12T20:36:10.052Z,6.20
2019-01-12T20:38:48.126Z,6.10
2019-01-12T20:41:29.447Z,6.20
2019-01-12T20:44:16.586Z,6.20
2019-01-12T20:47:19.007Z,6.20
2019-01-12T20:49:52.990Z,6.20
2019-01-12T20:52:52.219Z,6.30
2019-01-12T20:55:33.126Z,6.40
2019-01-12T20:58:10.923Z,6.40
2019-01-12T21:00:50.615Z,6.30
2019-01-12T21:03:50.106Z,6.20
2019-01-12T21:06:22.143Z,6.20
2019-01-12T21:08:57.133Z,6.10
2019-01-12T21:11:31.698Z,6.20
2019-01-12T21:14:31.064Z,6.20
2019-01-12T21:17:06.135Z,6.20
2019-01-12T21:19:34.703Z,6.10
2019-01-12T21:22:02.749Z,6.10
2019-01-12T21:24:30.520Z,6.10
2019-01-12T21:26:58.379Z,6.10
2019-01-12T21:29:26.175Z,6.10
2019-01-12T21:31:54.039Z,6.00
2019-01-12T21:34:21.829Z,6.00
2019-01-12T21:36:49.643Z,6.10
2019-01-12T21:39:17.418Z,6.10
2019-01-12T21:41:45.226Z,6.10
2019-01-12T21:44:13.014Z,6.10
2019-01-12T21:46:40.839Z,6.00
2019-01-12T21:49:08.642Z,6.00
2019-01-12T21:51:36.479Z,5.90
2019-01-12T21:54:04.436Z,5.90
2019-01-12T21:56:32.235Z,5.90
2019-01-12T21:59:00.166Z,5.90
2019-01-12T22:01:27.968Z,5.90
2019-01-12T22:03:55.934Z,5.90
2019-01-12T22:06:23.878Z,5.90
2019-01-12T22:08:51.728Z,5.90
2019-01-12T22:11:19.534Z,6.00
2019-01-12T22:13:47.343Z,6.00
2019-01-12T22:16:15.115Z,6.00
2019-01-12T22:18:43.056Z,6.00
2019-01-12T22:21:10.834Z,6.00
2019-01-12T22:23:38.635Z,6.10
2019-01-12T22:26:06.756Z,6.10
2019-01-12T22:28:34.539Z,6.10
2019-01-12T22:31:02.378Z,6.10
2019-01-12T22:33:30.209Z,6.10
2019-01-12T22:35:57.978Z,6.10
2019-01-12T22:38:25.795Z,6.10
2019-01-12T22:40:53.610Z,6.00
2019-01-12T22:43:21.439Z,6.00
2019-01-12T22:45:49.356Z,5.90
2019-01-12T22:48:17.502Z,5.90
2019-01-12T22:50:45.587Z,5.90
2019-01-12T22:53:13.465Z,5.90
2019-01-12T22:55:41.248Z,5.90
2019-01-12T22:58:09.135Z,5.90
2019-01-12T23:00:51.521Z,5.90
2019-01-12T23:03:19.315Z,5.90
2019-01-12T23:05:47.081Z,5.90
2019-01-12T23:08:14.948Z,5.90
2019-01-12T23:10:42.807Z,5.90
2019-01-12T23:13:10.613Z,5.90
2019-01-12T23:15:38.407Z,5.90
2019-01-12T23:18:06.215Z,5.90
2019-01-12T23:20:34.004Z,5.90
2019-01-12T23:23:03.551Z,5.90
2019-01-12T23:25:31.330Z,5.90
2019-01-12T23:27:59.230Z,5.90
2019-01-12T23:30:27.340Z,5.90
2019-01-12T23:32:55.250Z,5.90
2019-01-12T23:35:23.103Z,5.90
2019-01-12T23:37:50.891Z,6.00
2019-01-12T23:40:18.674Z,5.90
2019-01-12T23:42:46.619Z,5.90
2019-01-12T23:45:14.661Z,6.00
2019-01-12T23:47:42.551Z,6.00
2019-01-12T23:50:10.511Z,6.00
2019-01-12T23:52:38.278Z,6.00
2019-01-12T23:55:06.243Z,6.00
2019-01-12T23:57:34.190Z,6.00
